createdAt,value
2023-01-08T00:00:50.944Z,5.10
2023-01-08T00:03:41.796Z,5.33
2023-01-08T00:06:30.632Z,5.30
2023-01-08T00:09:19.689Z,5.80
2023-01-08T00:12:11.408Z,5.27
2023-01-08T00:15:04.387Z,5.97
2023-01-08T00:17:53.212Z,5.10
2023-01-08T00:20:43.112Z,6.03
2023-01-08T00:23:35.936Z,5.83
2023-01-08T00:26:24.595Z,5.50
2023-01-08T00:29:14.900Z,5.90
2023-01-08T00:32:03.329Z,6.00
2023-01-08T00:34:55.037Z,4.40
2023-01-08T00:37:44.256Z,5.70
2023-01-08T00:40:34.252Z,6.80
2023-01-08T00:43:24.311Z,6.07
2023-01-08T00:46:14.561Z,5.77
2023-01-08T00:49:04.881Z,5.90
2023-01-08T00:51:53.717Z,5.30
2023-01-08T00:54:44.612Z,5.50
2023-01-08T00:57:35.114Z,5.70
2023-01-08T01:00:24.060Z,5.70
2023-01-08T01:03:14.370Z,5.63
2023-01-08T01:06:03.401Z,5.90
2023-01-08T01:08:52.670Z,5.80
2023-01-08T01:11:41.438Z,6.27
2023-01-08T01:14:32.503Z,5.97
2023-01-08T01:17:25.953Z,6.60
2023-01-08T01:20:18.152Z,6.20
2023-01-08T01:23:09.189Z,6.17
2023-01-08T01:25:58.150Z,5.77
2023-01-08T01:28:49.850Z,6.50
2023-01-08T01:31:39.505Z,6.53
2023-01-08T01:34:31.921Z,6.27
2023-01-08T01:37:22.142Z,7.57
2023-01-08T01:40:12.473Z,6.23
2023-01-08T01:43:01.123Z,7.10
2023-01-08T01:45:58.707Z,6.30
2023-01-08T01:48:52.898Z,6.60
2023-01-08T01:51:51.547Z,6.73
2023-01-08T01:54:41.711Z,5.83
2023-01-08T01:57:32.881Z,8.20
2023-01-08T02:00:23.416Z,7.13
2023-01-08T02:03:15.020Z,6.47
2023-01-08T02:06:13.929Z,7.40
2023-01-08T02:09:06.043Z,6.30
2023-01-08T02:12:14.723Z,7.80
2023-01-08T02:15:22.220Z,6.80
2023-01-08T02:18:19.549Z,7.90
2023-01-08T02:21:12.618Z,7.20
2023-01-08T02:24:11.582Z,7.50
2023-01-08T02:27:04.834Z,8.00
2023-01-08T02:29:57.237Z,7.77
2023-01-08T02:32:46.641Z,9.07
2023-01-08T02:35:39.865Z,8.67
2023-01-08T02:38:28.624Z,8.80
2023-01-08T02:41:18.947Z,8.87
2023-01-08T02:44:11.337Z,8.27
2023-01-08T02:47:01.845Z,8.53
2023-01-08T02:49:55.476Z,7.80
2023-01-08T02:52:53.849Z,8.30
2023-01-08T02:55:45.277Z,8.20
2023-01-08T02:58:37.597Z,9.30
2023-01-08T03:01:30.237Z,9.40
2023-01-08T03:04:23.662Z,9.10
2023-01-08T03:07:12.578Z,8.73
2023-01-08T03:10:01.316Z,8.70
2023-01-08T03:12:54.886Z,9.70
2023-01-08T03:15:48.303Z,9.60
